sensor_id;sensor_type;location;lat;lon;timestamp;temperature;humidity
21580;DHT22;10951;59.656;9.666;2023-05-10T00:00:31;9.60;75.50
21580;DHT22;10951;59.656;9.666;2023-05-10T00:02:58;9.70;75.00
21580;DHT22;10951;59.656;9.666;2023-05-10T00:05:25;9.70;75.00
21580;DHT22;10951;59.656;9.666;2023-05-10T00:07:52;9.70;75.50
21580;DHT22;10951;59.656;9.666;2023-05-10T00:10:19;9.70;75.50
21580;DHT22;10951;59.656;9.666;2023-05-10T00:12:46;9.70;74.70
21580;DHT22;10951;59.656;9.666;2023-05-10T00:15:13;9.70;74.20
21580;DHT22;10951;59.656;9.666;2023-05-10T00:17:40;9.70;74.30
21580;DHT22;10951;59.656;9.666;2023-05-10T00:20:07;9.70;74.70
21580;DHT22;10951;59.656;9.666;2023-05-10T00:22:34;9.60;74.30
21580;DHT22;10951;59.656;9.666;2023-05-10T00:25:02;9.60;75.30
21580;DHT22;10951;59.656;9.666;2023-05-10T00:27:29;9.70;75.10
21580;DHT22;10951;59.656;9.666;2023-05-10T00:29:56;9.70;74.10
21580;DHT22;10951;59.656;9.666;2023-05-10T00:32:23;9.60;75.40
21580;DHT22;10951;59.656;9.666;2023-05-10T00:34:50;9.60;75.00
21580;DHT22;10951;59.656;9.666;2023-05-10T00:37:17;9.50;75.30
21580;DHT22;10951;59.656;9.666;2023-05-10T00:39:44;9.50;75.90
21580;DHT22;10951;59.656;9.666;2023-05-10T00:42:11;9.50;75.90
21580;DHT22;10951;59.656;9.666;2023-05-10T00:44:38;9.40;75.60
21580;DHT22;10951;59.656;9.666;2023-05-10T00:47:05;9.40;75.70
21580;DHT22;10951;59.656;9.666;2023-05-10T00:49:35;9.30;75.40
21580;DHT22;10951;59.656;9.666;2023-05-10T00:52:02;9.30;76.10
21580;DHT22;10951;59.656;9.666;2023-05-10T00:54:30;9.40;75.80
21580;DHT22;10951;59.656;9.666;2023-05-10T00:56:57;9.40;75.20
21580;DHT22;10951;59.656;9.666;2023-05-10T00:59:23;9.40;75.40
21580;DHT22;10951;59.656;9.666;2023-05-10T01:01:51;9.40;75.30
21580;DHT22;10951;59.656;9.666;2023-05-10T01:04:18;9.40;75.50
21580;DHT22;10951;59.656;9.666;2023-05-10T01:06:52;9.30;75.50
21580;DHT22;10951;59.656;9.666;2023-05-10T01:09:21;9.30;75.90
21580;DHT22;10951;59.656;9.666;2023-05-10T01:11:48;9.40;75.10
21580;DHT22;10951;59.656;9.666;2023-05-10T01:14:18;9.40;75.00
21580;DHT22;10951;59.656;9.666;2023-05-10T01:16:47;9.40;74.40
21580;DHT22;10951;59.656;9.666;2023-05-10T01:22:11;9.40;74.10
21580;DHT22;10951;59.656;9.666;2023-05-10T01:30:21;9.50;73.00
21580;DHT22;10951;59.656;9.666;2023-05-10T01:35:55;9.50;72.80
21580;DHT22;10951;59.656;9.666;2023-05-10T01:38:37;9.50;72.90
21580;DHT22;10951;59.656;9.666;2023-05-10T01:41:16;9.50;72.90
21580;DHT22;10951;59.656;9.666;2023-05-10T01:46:37;9.40;73.10
21580;DHT22;10951;59.656;9.666;2023-05-10T01:49:11;9.40;73.90
21580;DHT22;10951;59.656;9.666;2023-05-10T01:51:53;9.40;73.80
21580;DHT22;10951;59.656;9.666;2023-05-10T01:54:22;9.40;73.70
21580;DHT22;10951;59.656;9.666;2023-05-10T01:56:56;9.40;74.00
21580;DHT22;10951;59.656;9.666;2023-05-10T01:59:30;9.40;74.50
21580;DHT22;10951;59.656;9.666;2023-05-10T02:01:59;9.30;75.00
21580;DHT22;10951;59.656;9.666;2023-05-10T02:04:28;9.20;75.40
21580;DHT22;10951;59.656;9.666;2023-05-10T02:06:55;9.20;77.00
21580;DHT22;10951;59.656;9.666;2023-05-10T02:09:25;9.30;78.60
21580;DHT22;10951;59.656;9.666;2023-05-10T02:11:54;9.20;78.90
21580;DHT22;10951;59.656;9.666;2023-05-10T02:14:22;9.00;79.30
21580;DHT22;10951;59.656;9.666;2023-05-10T02:16:51;9.00;80.20
21580;DHT22;10951;59.656;9.666;2023-05-10T02:19:20;8.80;80.90
21580;DHT22;10951;59.656;9.666;2023-05-10T02:21:49;8.60;81.30
21580;DHT22;10951;59.656;9.666;2023-05-10T02:24:17;8.50;82.20
21580;DHT22;10951;59.656;9.666;2023-05-10T02:26:47;8.50;83.40
21580;DHT22;10951;59.656;9.666;2023-05-10T02:29:16;8.40;84.30
21580;DHT22;10951;59.656;9.666;2023-05-10T02:31:44;8.30;85.10
21580;DHT22;10951;59.656;9.666;2023-05-10T02:34:13;8.20;86.80
21580;DHT22;10951;59.656;9.666;2023-05-10T02:36:41;8.10;88.00
21580;DHT22;10951;59.656;9.666;2023-05-10T02:39:09;8.10;90.00
21580;DHT22;10951;59.656;9.666;2023-05-10T02:41:40;8.00;90.80
21580;DHT22;10951;59.656;9.666;2023-05-10T02:44:09;7.90;91.70
21580;DHT22;10951;59.656;9.666;2023-05-10T02:46:37;7.90;92.60
21580;DHT22;10951;59.656;9.666;2023-05-10T02:49:04;7.80;93.30
21580;DHT22;10951;59.656;9.666;2023-05-10T02:51:35;7.60;94.00
21580;DHT22;10951;59.656;9.666;2023-05-10T02:54:25;7.60;94.50
21580;DHT22;10951;59.656;9.666;2023-05-10T02:56:59;7.50;94.90
21580;DHT22;10951;59.656;9.666;2023-05-10T02:59:27;7.50;95.20
21580;DHT22;10951;59.656;9.666;2023-05-10T03:01:54;7.50;95.50
21580;DHT22;10951;59.656;9.666;2023-05-10T03:04:21;7.50;95.80
21580;DHT22;10951;59.656;9.666;2023-05-10T03:06:50;7.40;96.10
21580;DHT22;10951;59.656;9.666;2023-05-10T03:09:17;7.40;96.30
21580;DHT22;10951;59.656;9.666;2023-05-10T03:14:51;7.30;96.80
21580;DHT22;10951;59.656;9.666;2023-05-10T03:17:39;7.30;97.20
21580;DHT22;10951;59.656;9.666;2023-05-10T03:20:10;7.20;97.40
21580;DHT22;10951;59.656;9.666;2023-05-10T03:22:42;7.10;97.80
21580;DHT22;10951;59.656;9.666;2023-05-10T03:25:11;7.10;98.20
21580;DHT22;10951;59.656;9.666;2023-05-10T03:27:41;7.10;98.40
21580;DHT22;10951;59.656;9.666;2023-05-10T03:30:11;7.10;98.60
21580;DHT22;10951;59.656;9.666;2023-05-10T03:32:39;7.10;99.00
21580;DHT22;10951;59.656;9.666;2023-05-10T03:35:07;7.00;99.10
21580;DHT22;10951;59.656;9.666;2023-05-10T03:37:36;6.90;99.50
21580;DHT22;10951;59.656;9.666;2023-05-10T03:40:03;6.90;99.90
21580;DHT22;10951;59.656;9.666;2023-05-10T03:42:33;6.80;99.90
21580;DHT22;10951;59.656;9.666;2023-05-10T03:45:00;6.80;99.90
21580;DHT22;10951;59.656;9.666;2023-05-10T03:47:27;6.80;99.90
21580;DHT22;10951;59.656;9.666;2023-05-10T03:49:54;6.80;99.90
21580;DHT22;10951;59.656;9.666;2023-05-10T03:52:21;6.80;99.90
21580;DHT22;10951;59.656;9.666;2023-05-10T03:54:48;6.90;99.90
21580;DHT22;10951;59.656;9.666;2023-05-10T03:57:15;6.90;99.90
21580;DHT22;10951;59.656;9.666;2023-05-10T03:59:42;6.90;99.90
21580;DHT22;10951;59.656;9.666;2023-05-10T04:02:09;6.90;99.90
21580;DHT22;10951;59.656;9.666;2023-05-10T04:04:36;6.90;99.90
21580;DHT22;10951;59.656;9.666;2023-05-10T04:07:03;6.90;99.90
21580;DHT22;10951;59.656;9.666;2023-05-10T04:09:30;6.90;99.90
21580;DHT22;10951;59.656;9.666;2023-05-10T04:11:58;6.80;99.90
21580;DHT22;10951;59.656;9.666;2023-05-10T04:14:25;6.80;99.90
21580;DHT22;10951;59.656;9.666;2023-05-10T04:16:52;6.80;99.90
21580;DHT22;10951;59.656;9.666;2023-05-10T04:19:19;6.80;99.90
21580;DHT22;10951;59.656;9.666;2023-05-10T04:21:46;6.90;99.90
21580;DHT22;10951;59.656;9.666;2023-05-10T04:24:13;6.90;99.90
21580;DHT22;10951;59.656;9.666;2023-05-10T04:26:40;6.90;99.90
21580;DHT22;10951;59.656;9.666;2023-05-10T04:29:07;7.00;99.90
21580;DHT22;10951;59.656;9.666;2023-05-10T04:31:34;7.00;99.90
21580;DHT22;10951;59.656;9.666;2023-05-10T04:34:03;7.00;99.90
21580;DHT22;10951;59.656;9.666;2023-05-10T04:36:29;7.10;99.90
21580;DHT22;10951;59.656;9.666;2023-05-10T04:38:56;7.20;99.90
21580;DHT22;10951;59.656;9.666;2023-05-10T04:41:23;7.20;99.90
21580;DHT22;10951;59.656;9.666;2023-05-10T04:43:51;7.30;99.90
21580;DHT22;10951;59.656;9.666;2023-05-10T04:46:19;7.30;99.90
21580;DHT22;10951;59.656;9.666;2023-05-10T04:48:46;7.40;99.90
21580;DHT22;10951;59.656;9.666;2023-05-10T04:51:13;7.40;99.90
21580;DHT22;10951;59.656;9.666;2023-05-10T04:53:40;7.30;99.90
21580;DHT22;10951;59.656;9.666;2023-05-10T04:56:10;7.30;99.90
21580;DHT22;10951;59.656;9.666;2023-05-10T04:58:37;7.20;99.90
21580;DHT22;10951;59.656;9.666;2023-05-10T05:01:08;7.20;99.90
21580;DHT22;10951;59.656;9.666;2023-05-10T05:03:35;7.20;99.90
21580;DHT22;10951;59.656;9.666;2023-05-10T05:06:02;7.30;99.90
21580;DHT22;10951;59.656;9.666;2023-05-10T05:08:30;7.50;99.90
21580;DHT22;10951;59.656;9.666;2023-05-10T05:10:57;7.60;99.80
21580;DHT22;10951;59.656;9.666;2023-05-10T05:13:25;7.60;99.60
21580;DHT22;10951;59.656;9.666;2023-05-10T05:15:53;7.80;99.30
21580;DHT22;10951;59.656;9.666;2023-05-10T05:18:20;7.90;98.80
21580;DHT22;10951;59.656;9.666;2023-05-10T05:20:47;8.00;98.20
21580;DHT22;10951;59.656;9.666;2023-05-10T05:23:13;8.10;98.00
21580;DHT22;10951;59.656;9.666;2023-05-10T05:25:40;8.20;97.90
21580;DHT22;10951;59.656;9.666;2023-05-10T05:28:08;8.30;97.90
21580;DHT22;10951;59.656;9.666;2023-05-10T05:30:35;8.30;97.40
21580;DHT22;10951;59.656;9.666;2023-05-10T05:33:02;8.40;97.10
21580;DHT22;10951;59.656;9.666;2023-05-10T05:35:29;8.50;96.90
21580;DHT22;10951;59.656;9.666;2023-05-10T05:37:56;8.70;96.50
21580;DHT22;10951;59.656;9.666;2023-05-10T05:40:23;8.80;96.10
21580;DHT22;10951;59.656;9.666;2023-05-10T05:42:50;8.90;95.90
21580;DHT22;10951;59.656;9.666;2023-05-10T05:45:17;9.00;95.70
21580;DHT22;10951;59.656;9.666;2023-05-10T05:47:44;9.00;95.50
21580;DHT22;10951;59.656;9.666;2023-05-10T05:50:12;9.20;95.30
21580;DHT22;10951;59.656;9.666;2023-05-10T05:52:39;9.20;95.10
21580;DHT22;10951;59.656;9.666;2023-05-10T05:55:06;9.30;95.00
21580;DHT22;10951;59.656;9.666;2023-05-10T05:57:33;9.40;94.90
21580;DHT22;10951;59.656;9.666;2023-05-10T06:00:00;9.40;94.70
21580;DHT22;10951;59.656;9.666;2023-05-10T06:02:38;9.50;94.50
21580;DHT22;10951;59.656;9.666;2023-05-10T06:05:05;9.60;94.20
21580;DHT22;10951;59.656;9.666;2023-05-10T06:07:32;9.60;94.00
21580;DHT22;10951;59.656;9.666;2023-05-10T06:09:59;9.70;94.10
21580;DHT22;10951;59.656;9.666;2023-05-10T06:12:26;9.70;94.10
21580;DHT22;10951;59.656;9.666;2023-05-10T06:14:53;9.90;94.00
21580;DHT22;10951;59.656;9.666;2023-05-10T06:17:20;10.00;93.70
21580;DHT22;10951;59.656;9.666;2023-05-10T06:19:48;10.20;93.50
21580;DHT22;10951;59.656;9.666;2023-05-10T06:22:15;10.30;93.10
21580;DHT22;10951;59.656;9.666;2023-05-10T06:24:41;10.40;93.00
21580;DHT22;10951;59.656;9.666;2023-05-10T06:27:09;10.50;92.80
21580;DHT22;10951;59.656;9.666;2023-05-10T06:29:35;10.60;92.60
21580;DHT22;10951;59.656;9.666;2023-05-10T06:32:02;10.60;92.50
21580;DHT22;10951;59.656;9.666;2023-05-10T06:34:29;10.70;91.90
21580;DHT22;10951;59.656;9.666;2023-05-10T06:36:57;10.80;92.10
21580;DHT22;10951;59.656;9.666;2023-05-10T06:39:23;10.90;92.20
21580;DHT22;10951;59.656;9.666;2023-05-10T06:41:50;11.00;92.00
21580;DHT22;10951;59.656;9.666;2023-05-10T06:44:18;11.00;91.20
21580;DHT22;10951;59.656;9.666;2023-05-10T06:46:45;11.10;91.30
21580;DHT22;10951;59.656;9.666;2023-05-10T06:49:12;11.20;91.40
21580;DHT22;10951;59.656;9.666;2023-05-10T06:51:39;11.30;90.80
21580;DHT22;10951;59.656;9.666;2023-05-10T06:54:06;11.30;90.80
21580;DHT22;10951;59.656;9.666;2023-05-10T06:56:33;11.40;90.60
21580;DHT22;10951;59.656;9.666;2023-05-10T06:59:00;11.50;90.30
21580;DHT22;10951;59.656;9.666;2023-05-10T07:01:27;11.60;90.20
21580;DHT22;10951;59.656;9.666;2023-05-10T07:03:54;11.70;90.00
21580;DHT22;10951;59.656;9.666;2023-05-10T07:06:22;11.80;89.20
21580;DHT22;10951;59.656;9.666;2023-05-10T07:08:59;11.90;89.00
21580;DHT22;10951;59.656;9.666;2023-05-10T07:11:27;12.00;89.20
21580;DHT22;10951;59.656;9.666;2023-05-10T07:13:54;12.10;87.80
21580;DHT22;10951;59.656;9.666;2023-05-10T07:16:20;12.20;87.40
21580;DHT22;10951;59.656;9.666;2023-05-10T07:18:48;12.20;86.80
21580;DHT22;10951;59.656;9.666;2023-05-10T07:21:17;12.30;85.30
21580;DHT22;10951;59.656;9.666;2023-05-10T07:23:44;12.30;85.00
21580;DHT22;10951;59.656;9.666;2023-05-10T07:26:11;12.40;85.00
21580;DHT22;10951;59.656;9.666;2023-05-10T07:28:38;12.40;80.80
21580;DHT22;10951;59.656;9.666;2023-05-10T07:31:05;12.40;79.10
21580;DHT22;10951;59.656;9.666;2023-05-10T07:33:32;12.50;78.60
21580;DHT22;10951;59.656;9.666;2023-05-10T07:35:59;12.50;77.30
21580;DHT22;10951;59.656;9.666;2023-05-10T07:38:27;12.50;76.00
21580;DHT22;10951;59.656;9.666;2023-05-10T07:40:54;12.60;76.00
21580;DHT22;10951;59.656;9.666;2023-05-10T07:43:20;12.70;75.00
21580;DHT22;10951;59.656;9.666;2023-05-10T07:45:47;12.80;75.00
21580;DHT22;10951;59.656;9.666;2023-05-10T07:48:14;12.80;72.40
21580;DHT22;10951;59.656;9.666;2023-05-10T07:50:41;12.90;73.30
21580;DHT22;10951;59.656;9.666;2023-05-10T07:53:09;13.00;72.60
21580;DHT22;10951;59.656;9.666;2023-05-10T07:55:36;13.20;72.70
21580;DHT22;10951;59.656;9.666;2023-05-10T07:58:03;13.40;72.40
21580;DHT22;10951;59.656;9.666;2023-05-10T08:00:30;13.40;69.50
21580;DHT22;10951;59.656;9.666;2023-05-10T08:02:57;13.60;67.70
21580;DHT22;10951;59.656;9.666;2023-05-10T08:05:24;13.70;65.90
21580;DHT22;10951;59.656;9.666;2023-05-10T08:07:51;13.80;64.10
21580;DHT22;10951;59.656;9.666;2023-05-10T08:10:18;13.70;65.30
21580;DHT22;10951;59.656;9.666;2023-05-10T08:12:45;13.70;63.90
21580;DHT22;10951;59.656;9.666;2023-05-10T08:15:11;13.80;64.60
21580;DHT22;10951;59.656;9.666;2023-05-10T08:17:39;13.90;63.00
21580;DHT22;10951;59.656;9.666;2023-05-10T08:20:06;14.10;61.20
21580;DHT22;10951;59.656;9.666;2023-05-10T08:22:34;14.10;61.20
21580;DHT22;10951;59.656;9.666;2023-05-10T08:25:01;14.30;62.30
21580;DHT22;10951;59.656;9.666;2023-05-10T08:27:28;14.40;60.90
21580;DHT22;10951;59.656;9.666;2023-05-10T08:29:55;14.40;60.40
21580;DHT22;10951;59.656;9.666;2023-05-10T08:32:22;14.40;59.60
21580;DHT22;10951;59.656;9.666;2023-05-10T08:34:49;14.40;59.30
21580;DHT22;10951;59.656;9.666;2023-05-10T08:37:16;14.50;60.60
21580;DHT22;10951;59.656;9.666;2023-05-10T08:39:43;14.50;58.90
21580;DHT22;10951;59.656;9.666;2023-05-10T08:42:11;14.40;58.50
21580;DHT22;10951;59.656;9.666;2023-05-10T08:44:39;14.20;59.20
21580;DHT22;10951;59.656;9.666;2023-05-10T08:47:06;14.20;58.50
21580;DHT22;10951;59.656;9.666;2023-05-10T08:49:37;14.20;59.10
21580;DHT22;10951;59.656;9.666;2023-05-10T08:52:05;14.30;59.90
21580;DHT22;10951;59.656;9.666;2023-05-10T08:54:34;14.30;58.10
21580;DHT22;10951;59.656;9.666;2023-05-10T08:57:01;14.30;59.20
21580;DHT22;10951;59.656;9.666;2023-05-10T08:59:28;14.50;58.80
21580;DHT22;10951;59.656;9.666;2023-05-10T09:01:57;14.60;57.90
21580;DHT22;10951;59.656;9.666;2023-05-10T09:04:25;14.70;58.20
21580;DHT22;10951;59.656;9.666;2023-05-10T09:06:53;15.00;58.20
21580;DHT22;10951;59.656;9.666;2023-05-10T09:09:21;15.10;57.50
21580;DHT22;10951;59.656;9.666;2023-05-10T09:11:48;15.20;56.40
21580;DHT22;10951;59.656;9.666;2023-05-10T09:14:15;15.30;56.70
21580;DHT22;10951;59.656;9.666;2023-05-10T09:16:44;15.40;56.90
21580;DHT22;10951;59.656;9.666;2023-05-10T09:19:11;15.40;55.70
21580;DHT22;10951;59.656;9.666;2023-05-10T09:21:38;15.40;55.80
21580;DHT22;10951;59.656;9.666;2023-05-10T09:24:07;15.30;56.10
21580;DHT22;10951;59.656;9.666;2023-05-10T09:26:35;15.20;55.60
21580;DHT22;10951;59.656;9.666;2023-05-10T09:29:03;15.00;56.60
21580;DHT22;10951;59.656;9.666;2023-05-10T09:31:44;15.00;56.30
21580;DHT22;10951;59.656;9.666;2023-05-10T09:34:17;15.20;57.20
21580;DHT22;10951;59.656;9.666;2023-05-10T09:36:58;15.40;56.30
21580;DHT22;10951;59.656;9.666;2023-05-10T09:39:32;15.40;55.60
21580;DHT22;10951;59.656;9.666;2023-05-10T09:42:02;15.50;56.00
21580;DHT22;10951;59.656;9.666;2023-05-10T09:44:31;15.50;56.00
21580;DHT22;10951;59.656;9.666;2023-05-10T09:46:59;15.60;55.80
21580;DHT22;10951;59.656;9.666;2023-05-10T09:49:27;15.80;56.90
21580;DHT22;10951;59.656;9.666;2023-05-10T09:52:07;15.90;55.90
21580;DHT22;10951;59.656;9.666;2023-05-10T09:54:34;16.30;55.50
21580;DHT22;10951;59.656;9.666;2023-05-10T09:57:02;16.50;55.30
21580;DHT22;10951;59.656;9.666;2023-05-10T09:59:33;16.70;53.50
21580;DHT22;10951;59.656;9.666;2023-05-10T10:02:01;16.80;53.30
21580;DHT22;10951;59.656;9.666;2023-05-10T10:04:29;16.80;53.30
21580;DHT22;10951;59.656;9.666;2023-05-10T10:07:04;16.80;53.40
21580;DHT22;10951;59.656;9.666;2023-05-10T10:09:33;17.10;53.90
21580;DHT22;10951;59.656;9.666;2023-05-10T10:12:01;17.10;52.50
21580;DHT22;10951;59.656;9.666;2023-05-10T10:14:29;17.20;52.50
21580;DHT22;10951;59.656;9.666;2023-05-10T10:16:56;17.10;52.10
21580;DHT22;10951;59.656;9.666;2023-05-10T10:19:37;17.10;52.80
21580;DHT22;10951;59.656;9.666;2023-05-10T10:22:04;17.10;53.20
21580;DHT22;10951;59.656;9.666;2023-05-10T10:24:33;17.10;51.30
21580;DHT22;10951;59.656;9.666;2023-05-10T10:27:55;16.90;51.80
21580;DHT22;10951;59.656;9.666;2023-05-10T10:35:55;16.80;51.60
21580;DHT22;10951;59.656;9.666;2023-05-10T10:38:22;16.90;52.80
21580;DHT22;10951;59.656;9.666;2023-05-10T10:41:02;17.10;52.00
21580;DHT22;10951;59.656;9.666;2023-05-10T10:43:30;17.00;51.50
21580;DHT22;10951;59.656;9.666;2023-05-10T10:46:16;16.80;51.40
21580;DHT22;10951;59.656;9.666;2023-05-10T10:49:08;16.80;50.70
21580;DHT22;10951;59.656;9.666;2023-05-10T10:51:39;16.70;51.60
21580;DHT22;10951;59.656;9.666;2023-05-10T10:54:12;16.90;51.50
21580;DHT22;10951;59.656;9.666;2023-05-10T10:56:39;16.90;50.40
21580;DHT22;10951;59.656;9.666;2023-05-10T10:59:07;17.10;51.10
21580;DHT22;10951;59.656;9.666;2023-05-10T11:01:35;17.40;50.80
21580;DHT22;10951;59.656;9.666;2023-05-10T11:06:33;17.60;49.50
21580;DHT22;10951;59.656;9.666;2023-05-10T11:09:10;17.40;48.90
21580;DHT22;10951;59.656;9.666;2023-05-10T11:11:54;17.40;49.50
21580;DHT22;10951;59.656;9.666;2023-05-10T11:14:25;17.30;49.20
21580;DHT22;10951;59.656;9.666;2023-05-10T11:16:52;17.30;50.00
21580;DHT22;10951;59.656;9.666;2023-05-10T11:19:19;17.20;49.20
21580;DHT22;10951;59.656;9.666;2023-05-10T11:24:15;17.10;50.50
21580;DHT22;10951;59.656;9.666;2023-05-10T11:26:43;17.20;50.30
21580;DHT22;10951;59.656;9.666;2023-05-10T11:29:10;17.40;49.40
21580;DHT22;10951;59.656;9.666;2023-05-10T11:31:43;17.50;49.40
21580;DHT22;10951;59.656;9.666;2023-05-10T11:34:11;17.30;48.80
21580;DHT22;10951;59.656;9.666;2023-05-10T11:36:39;17.40;49.80
21580;DHT22;10951;59.656;9.666;2023-05-10T11:39:06;17.40;50.10
21580;DHT22;10951;59.656;9.666;2023-05-10T11:41:33;17.40;49.40
21580;DHT22;10951;59.656;9.666;2023-05-10T11:44:00;17.50;49.40
21580;DHT22;10951;59.656;9.666;2023-05-10T11:46:28;17.50;49.30
21580;DHT22;10951;59.656;9.666;2023-05-10T11:49:00;17.50;49.10
21580;DHT22;10951;59.656;9.666;2023-05-10T11:51:28;17.70;49.30
21580;DHT22;10951;59.656;9.666;2023-05-10T11:53:56;17.80;48.90
21580;DHT22;10951;59.656;9.666;2023-05-10T11:56:24;17.90;48.50
21580;DHT22;10951;59.656;9.666;2023-05-10T11:58:55;18.00;48.80
21580;DHT22;10951;59.656;9.666;2023-05-10T12:01:23;18.20;49.10
21580;DHT22;10951;59.656;9.666;2023-05-10T12:03:51;18.30;49.20
21580;DHT22;10951;59.656;9.666;2023-05-10T12:06:20;18.60;49.30
21580;DHT22;10951;59.656;9.666;2023-05-10T12:08:48;18.80;48.40
21580;DHT22;10951;59.656;9.666;2023-05-10T12:11:19;19.00;47.60
21580;DHT22;10951;59.656;9.666;2023-05-10T12:13:48;19.10;47.60
21580;DHT22;10951;59.656;9.666;2023-05-10T12:16:17;19.20;47.40
21580;DHT22;10951;59.656;9.666;2023-05-10T12:18:45;19.30;46.80
21580;DHT22;10951;59.656;9.666;2023-05-10T12:21:12;19.30;47.30
21580;DHT22;10951;59.656;9.666;2023-05-10T12:23:39;19.40;47.10
21580;DHT22;10951;59.656;9.666;2023-05-10T12:26:09;19.60;47.10
21580;DHT22;10951;59.656;9.666;2023-05-10T12:28:37;19.60;47.20
21580;DHT22;10951;59.656;9.666;2023-05-10T12:31:05;19.60;46.40
21580;DHT22;10951;59.656;9.666;2023-05-10T12:33:40;19.70;46.60
21580;DHT22;10951;59.656;9.666;2023-05-10T12:36:12;19.60;45.90
21580;DHT22;10951;59.656;9.666;2023-05-10T12:38:44;19.50;46.10
21580;DHT22;10951;59.656;9.666;2023-05-10T12:41:18;19.40;45.90
21580;DHT22;10951;59.656;9.666;2023-05-10T12:43:45;19.20;45.60
21580;DHT22;10951;59.656;9.666;2023-05-10T12:46:15;19.20;46.70
21580;DHT22;10951;59.656;9.666;2023-05-10T12:48:44;19.30;46.40
21580;DHT22;10951;59.656;9.666;2023-05-10T12:51:11;19.30;46.00
21580;DHT22;10951;59.656;9.666;2023-05-10T12:53:39;19.30;45.90
21580;DHT22;10951;59.656;9.666;2023-05-10T12:56:10;19.20;45.90
21580;DHT22;10951;59.656;9.666;2023-05-10T12:58:38;19.20;46.20
21580;DHT22;10951;59.656;9.666;2023-05-10T13:01:05;19.20;45.80
21580;DHT22;10951;59.656;9.666;2023-05-10T13:03:32;19.20;46.00
21580;DHT22;10951;59.656;9.666;2023-05-10T13:05:59;19.20;46.30
21580;DHT22;10951;59.656;9.666;2023-05-10T13:08:26;19.20;45.80
21580;DHT22;10951;59.656;9.666;2023-05-10T13:10:53;19.30;46.10
21580;DHT22;10951;59.656;9.666;2023-05-10T13:13:20;19.40;45.60
21580;DHT22;10951;59.656;9.666;2023-05-10T13:15:47;19.50;45.30
21580;DHT22;10951;59.656;9.666;2023-05-10T13:18:14;19.40;45.50
21580;DHT22;10951;59.656;9.666;2023-05-10T13:20:41;19.20;45.20
21580;DHT22;10951;59.656;9.666;2023-05-10T13:23:10;19.10;45.40
21580;DHT22;10951;59.656;9.666;2023-05-10T13:25:37;19.00;45.40
21580;DHT22;10951;59.656;9.666;2023-05-10T13:28:04;18.80;46.70
21580;DHT22;10951;59.656;9.666;2023-05-10T13:30:31;18.70;45.80
21580;DHT22;10951;59.656;9.666;2023-05-10T13:32:58;18.60;47.50
21580;DHT22;10951;59.656;9.666;2023-05-10T13:35:25;18.50;46.90
21580;DHT22;10951;59.656;9.666;2023-05-10T13:37:52;18.50;47.20
21580;DHT22;10951;59.656;9.666;2023-05-10T13:40:20;18.60;47.20
21580;DHT22;10951;59.656;9.666;2023-05-10T13:42:47;18.70;46.90
21580;DHT22;10951;59.656;9.666;2023-05-10T13:45:13;18.70;46.90
21580;DHT22;10951;59.656;9.666;2023-05-10T13:47:41;18.70;47.10
21580;DHT22;10951;59.656;9.666;2023-05-10T13:50:08;18.70;47.30
21580;DHT22;10951;59.656;9.666;2023-05-10T13:52:36;18.70;47.10
21580;DHT22;10951;59.656;9.666;2023-05-10T13:55:03;18.80;47.20
21580;DHT22;10951;59.656;9.666;2023-05-10T13:57:30;18.80;46.90
21580;DHT22;10951;59.656;9.666;2023-05-10T13:59:57;18.90;46.70
21580;DHT22;10951;59.656;9.666;2023-05-10T14:02:25;19.10;46.80
21580;DHT22;10951;59.656;9.666;2023-05-10T14:04:54;19.20;47.10
21580;DHT22;10951;59.656;9.666;2023-05-10T14:07:21;19.10;46.10
21580;DHT22;10951;59.656;9.666;2023-05-10T14:09:48;19.10;46.40
21580;DHT22;10951;59.656;9.666;2023-05-10T14:12:15;19.00;46.30
21580;DHT22;10951;59.656;9.666;2023-05-10T14:14:42;18.90;46.40
21580;DHT22;10951;59.656;9.666;2023-05-10T14:17:09;18.70;47.00
21580;DHT22;10951;59.656;9.666;2023-05-10T14:19:38;18.60;47.30
21580;DHT22;10951;59.656;9.666;2023-05-10T14:22:05;18.50;46.70
21580;DHT22;10951;59.656;9.666;2023-05-10T14:24:32;18.40;47.20
21580;DHT22;10951;59.656;9.666;2023-05-10T14:27:00;18.40;47.40
21580;DHT22;10951;59.656;9.666;2023-05-10T14:29:27;18.40;47.30
21580;DHT22;10951;59.656;9.666;2023-05-10T14:31:54;18.50;47.90
21580;DHT22;10951;59.656;9.666;2023-05-10T14:34:21;18.70;48.00
21580;DHT22;10951;59.656;9.666;2023-05-10T14:36:48;18.60;46.60
21580;DHT22;10951;59.656;9.666;2023-05-10T14:39:15;18.50;46.90
21580;DHT22;10951;59.656;9.666;2023-05-10T14:41:42;18.60;48.00
21580;DHT22;10951;59.656;9.666;2023-05-10T14:44:11;18.50;47.60
21580;DHT22;10951;59.656;9.666;2023-05-10T14:46:38;18.40;47.00
21580;DHT22;10951;59.656;9.666;2023-05-10T14:49:06;18.20;47.50
21580;DHT22;10951;59.656;9.666;2023-05-10T14:51:33;18.20;47.80
21580;DHT22;10951;59.656;9.666;2023-05-10T14:54:03;18.20;47.80
21580;DHT22;10951;59.656;9.666;2023-05-10T14:56:31;18.00;47.50
21580;DHT22;10951;59.656;9.666;2023-05-10T14:58:59;17.90;47.20
21580;DHT22;10951;59.656;9.666;2023-05-10T15:01:27;17.90;48.00
21580;DHT22;10951;59.656;9.666;2023-05-10T15:03:55;17.90;47.80
21580;DHT22;10951;59.656;9.666;2023-05-10T15:06:31;17.90;47.10
21580;DHT22;10951;59.656;9.666;2023-05-10T15:08:58;18.00;47.40
21580;DHT22;10951;59.656;9.666;2023-05-10T15:11:25;18.10;47.60
21580;DHT22;10951;59.656;9.666;2023-05-10T15:13:53;18.20;47.70
21580;DHT22;10951;59.656;9.666;2023-05-10T15:16:20;18.40;47.10
21580;DHT22;10951;59.656;9.666;2023-05-10T15:18:47;18.30;46.80
21580;DHT22;10951;59.656;9.666;2023-05-10T15:21:15;18.30;47.00
21580;DHT22;10951;59.656;9.666;2023-05-10T15:23:41;18.40;47.50
21580;DHT22;10951;59.656;9.666;2023-05-10T15:26:08;18.30;46.70
21580;DHT22;10951;59.656;9.666;2023-05-10T15:28:35;18.30;46.70
21580;DHT22;10951;59.656;9.666;2023-05-10T15:31:02;18.30;46.00
21580;DHT22;10951;59.656;9.666;2023-05-10T15:33:29;18.20;46.00
21580;DHT22;10951;59.656;9.666;2023-05-10T15:35:56;18.20;46.50
21580;DHT22;10951;59.656;9.666;2023-05-10T15:38:23;18.10;46.70
21580;DHT22;10951;59.656;9.666;2023-05-10T15:40:50;18.10;46.70
21580;DHT22;10951;59.656;9.666;2023-05-10T15:43:17;18.20;46.80
21580;DHT22;10951;59.656;9.666;2023-05-10T15:45:44;18.20;46.70
21580;DHT22;10951;59.656;9.666;2023-05-10T15:48:11;18.30;46.90
21580;DHT22;10951;59.656;9.666;2023-05-10T15:50:38;18.30;46.80
21580;DHT22;10951;59.656;9.666;2023-05-10T15:53:06;18.30;46.80
21580;DHT22;10951;59.656;9.666;2023-05-10T15:55:33;18.30;46.30
21580;DHT22;10951;59.656;9.666;2023-05-10T15:58:01;18.20;46.00
21580;DHT22;10951;59.656;9.666;2023-05-10T16:00:28;18.20;46.50
21580;DHT22;10951;59.656;9.666;2023-05-10T16:02:55;18.20;46.40
21580;DHT22;10951;59.656;9.666;2023-05-10T16:05:22;18.20;45.70
21580;DHT22;10951;59.656;9.666;2023-05-10T16:07:50;18.20;45.60
21580;DHT22;10951;59.656;9.666;2023-05-10T16:10:17;18.30;45.80
21580;DHT22;10951;59.656;9.666;2023-05-10T16:12:44;18.30;46.00